Portada
METAR-TAF:

METAR-TAF

Aeroports :

Nakhon Ratchasima, Tailàndia

latitud: 14-56-58N, longitud: 102-18-45E, altitud: 233 m

Observació

L'informe es va fer fa 3 hores i 0 minuts, a les 11:00 UTC
Vent calma
Temperatura 35°C
Humitat 67%
Pressió 1005 hPa
Visibilitat 10 km o més
Escasses núvols a una alçada de 3500 ft

METAR: VTUQ 141100Z 00000KT 9999 FEW035 35/28 Q1005 NOSIG

Hora: 21:00 (14:00 UTC)

Pronòstic

L'informe es va fer fa 3 hores i 0 minuts, a les 11:00 UTC
Pronòstic vàlid del 14 a les 12 UTC al 15 a les 12 UTC
Vent 5 kt del Sud/Sud-Oest
Visibilitat: 9000 m
Escasses núvols a una alçada de 3000 ft

TAF: VTUQ 141100Z 1412/1512 20005KT 9000 FEW030

Observacions i pronòstics meteorològics de més de 4000 aeroports (METAR i TAF).

Les estacions disponibles són els punts grocs i vermells al mapa.

Posi el ratolí al punt desitjat per veure el nom de l'estació.

Feu clic per veure les observacions i els pronòstics meteorològics.

Per canviar el mapa: feu clic els botons verds amb una creu de color negre per apropar; al botó verd amb un guió per allunyar la imatge; o en les fletxes verdes per a mapes adjacents.


METAR-TAF: